Aviation Digital Data Service (ADDS)

Output produced by TAFs form (0018 UTC 01 November 2014)
found at http://aviationweather.gov/adds/tafs/
 
KLVS 312334Z 0100/0124 19018KT P6SM SCT200 
     FM010200 19013KT P6SM FEW080 SCT200 
     FM011000 20010KT P6SM BKN040 
     FM011400 20012G20KT P6SM SCT040 BKN070 
     FM011900 20016G26KT P6SM SCT050 SCT150